sensor_id;sensor_type;location;lat;lon;timestamp;P1;durP1;ratioP1;P2;durP2;ratioP2
26530;SDS011;14201;43.188;24.160;2024-02-15T00:00:21;7.28;;;5.03;;
26530;SDS011;14201;43.188;24.160;2024-02-15T00:02:47;9.93;;;4.75;;
26530;SDS011;14201;43.188;24.160;2024-02-15T00:05:14;7.20;;;4.50;;
26530;SDS011;14201;43.188;24.160;2024-02-15T00:07:41;8.75;;;5.25;;
26530;SDS011;14201;43.188;24.160;2024-02-15T00:10:07;7.43;;;4.68;;
26530;SDS011;14201;43.188;24.160;2024-02-15T00:12:34;7.18;;;4.45;;
26530;SDS011;14201;43.188;24.160;2024-02-15T00:14:59;8.27;;;4.38;;
26530;SDS011;14201;43.188;24.160;2024-02-15T00:17:26;7.82;;;4.75;;
26530;SDS011;14201;43.188;24.160;2024-02-15T00:19:54;6.63;;;4.80;;
26530;SDS011;14201;43.188;24.160;2024-02-15T00:22:20;7.82;;;4.65;;
26530;SDS011;14201;43.188;24.160;2024-02-15T00:24:46;7.43;;;5.00;;
26530;SDS011;14201;43.188;24.160;2024-02-15T00:27:14;7.13;;;4.53;;
26530;SDS011;14201;43.188;24.160;2024-02-15T00:29:40;7.25;;;4.63;;
26530;SDS011;14201;43.188;24.160;2024-02-15T00:32:06;7.88;;;4.75;;
26530;SDS011;14201;43.188;24.160;2024-02-15T00:34:32;7.63;;;4.78;;
26530;SDS011;14201;43.188;24.160;2024-02-15T00:36:58;7.70;;;4.90;;
26530;SDS011;14201;43.188;24.160;2024-02-15T00:39:24;6.43;;;4.68;;
26530;SDS011;14201;43.188;24.160;2024-02-15T00:41:50;7.28;;;4.80;;
26530;SDS011;14201;43.188;24.160;2024-02-15T00:44:16;7.50;;;4.93;;
26530;SDS011;14201;43.188;24.160;2024-02-15T00:46:42;6.90;;;5.10;;
26530;SDS011;14201;43.188;24.160;2024-02-15T00:49:08;6.82;;;4.68;;
26530;SDS011;14201;43.188;24.160;2024-02-15T00:51:34;8.38;;;4.85;;
26530;SDS011;14201;43.188;24.160;2024-02-15T00:54:01;7.72;;;5.20;;
26530;SDS011;14201;43.188;24.160;2024-02-15T00:56:28;8.35;;;4.70;;
26530;SDS011;14201;43.188;24.160;2024-02-15T00:58:56;8.95;;;4.82;;
26530;SDS011;14201;43.188;24.160;2024-02-15T01:01:22;8.18;;;4.75;;
26530;SDS011;14201;43.188;24.160;2024-02-15T01:03:47;7.25;;;4.63;;
26530;SDS011;14201;43.188;24.160;2024-02-15T01:06:13;9.25;;;4.60;;
26530;SDS011;14201;43.188;24.160;2024-02-15T01:08:38;7.57;;;5.20;;
26530;SDS011;14201;43.188;24.160;2024-02-15T01:11:04;6.45;;;4.50;;
26530;SDS011;14201;43.188;24.160;2024-02-15T01:13:31;8.93;;;5.22;;
26530;SDS011;14201;43.188;24.160;2024-02-15T01:15:57;10.15;;;5.75;;
26530;SDS011;14201;43.188;24.160;2024-02-15T01:18:22;7.63;;;5.30;;
26530;SDS011;14201;43.188;24.160;2024-02-15T01:20:48;7.28;;;5.05;;
26530;SDS011;14201;43.188;24.160;2024-02-15T01:23:14;8.60;;;4.88;;
26530;SDS011;14201;43.188;24.160;2024-02-15T01:25:40;8.57;;;5.35;;
26530;SDS011;14201;43.188;24.160;2024-02-15T01:28:05;7.07;;;5.05;;
26530;SDS011;14201;43.188;24.160;2024-02-15T01:30:31;5.68;;;4.30;;
26530;SDS011;14201;43.188;24.160;2024-02-15T01:32:57;8.95;;;5.10;;
26530;SDS011;14201;43.188;24.160;2024-02-15T01:35:23;7.70;;;5.45;;
26530;SDS011;14201;43.188;24.160;2024-02-15T01:37:50;6.63;;;5.00;;
26530;SDS011;14201;43.188;24.160;2024-02-15T01:40:15;7.25;;;5.05;;
26530;SDS011;14201;43.188;24.160;2024-02-15T01:42:44;8.07;;;5.18;;
26530;SDS011;14201;43.188;24.160;2024-02-15T01:45:10;7.32;;;4.90;;
26530;SDS011;14201;43.188;24.160;2024-02-15T01:47:37;9.75;;;5.30;;
26530;SDS011;14201;43.188;24.160;2024-02-15T01:50:05;6.15;;;4.70;;
26530;SDS011;14201;43.188;24.160;2024-02-15T01:52:32;8.13;;;5.10;;
26530;SDS011;14201;43.188;24.160;2024-02-15T01:54:59;6.97;;;5.15;;
26530;SDS011;14201;43.188;24.160;2024-02-15T01:57:33;10.10;;;5.20;;
26530;SDS011;14201;43.188;24.160;2024-02-15T02:00:00;9.05;;;4.97;;
26530;SDS011;14201;43.188;24.160;2024-02-15T02:02:28;7.97;;;5.03;;
26530;SDS011;14201;43.188;24.160;2024-02-15T02:04:58;6.90;;;4.93;;
26530;SDS011;14201;43.188;24.160;2024-02-15T02:07:23;8.65;;;5.25;;
26530;SDS011;14201;43.188;24.160;2024-02-15T02:09:49;6.60;;;4.53;;
26530;SDS011;14201;43.188;24.160;2024-02-15T02:12:14;8.40;;;4.82;;
26530;SDS011;14201;43.188;24.160;2024-02-15T02:14:41;9.45;;;5.43;;
26530;SDS011;14201;43.188;24.160;2024-02-15T02:17:10;7.45;;;4.97;;
26530;SDS011;14201;43.188;24.160;2024-02-15T02:19:37;6.03;;;4.70;;
26530;SDS011;14201;43.188;24.160;2024-02-15T02:22:03;7.55;;;4.88;;
26530;SDS011;14201;43.188;24.160;2024-02-15T02:24:30;7.45;;;5.10;;
26530;SDS011;14201;43.188;24.160;2024-02-15T02:27:05;6.78;;;4.53;;
26530;SDS011;14201;43.188;24.160;2024-02-15T02:29:33;7.70;;;5.00;;
26530;SDS011;14201;43.188;24.160;2024-02-15T02:31:59;9.88;;;5.53;;
26530;SDS011;14201;43.188;24.160;2024-02-15T02:34:24;6.88;;;5.30;;
26530;SDS011;14201;43.188;24.160;2024-02-15T02:36:50;6.97;;;4.72;;
26530;SDS011;14201;43.188;24.160;2024-02-15T02:39:16;9.02;;;5.00;;
26530;SDS011;14201;43.188;24.160;2024-02-15T02:41:42;9.10;;;5.40;;
26530;SDS011;14201;43.188;24.160;2024-02-15T02:44:08;8.50;;;5.63;;
26530;SDS011;14201;43.188;24.160;2024-02-15T02:46:34;10.43;;;5.47;;
26530;SDS011;14201;43.188;24.160;2024-02-15T02:49:00;6.60;;;4.78;;
26530;SDS011;14201;43.188;24.160;2024-02-15T02:51:26;7.60;;;5.20;;
26530;SDS011;14201;43.188;24.160;2024-02-15T02:53:52;6.13;;;4.85;;
26530;SDS011;14201;43.188;24.160;2024-02-15T02:56:17;8.23;;;5.10;;
26530;SDS011;14201;43.188;24.160;2024-02-15T02:58:43;7.70;;;5.45;;
26530;SDS011;14201;43.188;24.160;2024-02-15T03:01:10;10.57;;;5.40;;
26530;SDS011;14201;43.188;24.160;2024-02-15T03:03:38;7.30;;;5.05;;
26530;SDS011;14201;43.188;24.160;2024-02-15T03:06:05;7.00;;;5.10;;
26530;SDS011;14201;43.188;24.160;2024-02-15T03:08:31;7.50;;;4.82;;
26530;SDS011;14201;43.188;24.160;2024-02-15T03:10:56;7.10;;;4.65;;
26530;SDS011;14201;43.188;24.160;2024-02-15T03:13:22;8.45;;;5.22;;
26530;SDS011;14201;43.188;24.160;2024-02-15T03:15:48;7.30;;;5.03;;
26530;SDS011;14201;43.188;24.160;2024-02-15T03:18:14;6.82;;;5.10;;
26530;SDS011;14201;43.188;24.160;2024-02-15T03:20:41;9.18;;;5.20;;
26530;SDS011;14201;43.188;24.160;2024-02-15T03:23:07;7.00;;;4.80;;
26530;SDS011;14201;43.188;24.160;2024-02-15T03:25:32;7.50;;;5.22;;
26530;SDS011;14201;43.188;24.160;2024-02-15T03:28:00;9.35;;;5.10;;
26530;SDS011;14201;43.188;24.160;2024-02-15T03:30:30;9.77;;;4.88;;
26530;SDS011;14201;43.188;24.160;2024-02-15T03:32:58;7.88;;;3.80;;
26530;SDS011;14201;43.188;24.160;2024-02-15T03:35:25;7.28;;;4.78;;
26530;SDS011;14201;43.188;24.160;2024-02-15T03:37:53;9.32;;;4.82;;
26530;SDS011;14201;43.188;24.160;2024-02-15T03:40:20;8.10;;;4.63;;
26530;SDS011;14201;43.188;24.160;2024-02-15T03:42:46;10.57;;;4.95;;
26530;SDS011;14201;43.188;24.160;2024-02-15T03:45:12;12.65;;;5.00;;
26530;SDS011;14201;43.188;24.160;2024-02-15T03:47:38;7.68;;;4.88;;
26530;SDS011;14201;43.188;24.160;2024-02-15T03:50:04;6.75;;;4.80;;
26530;SDS011;14201;43.188;24.160;2024-02-15T03:52:30;10.40;;;5.13;;
26530;SDS011;14201;43.188;24.160;2024-02-15T03:54:57;7.00;;;4.90;;
26530;SDS011;14201;43.188;24.160;2024-02-15T03:57:23;6.47;;;4.70;;
26530;SDS011;14201;43.188;24.160;2024-02-15T03:59:49;6.93;;;4.43;;
26530;SDS011;14201;43.188;24.160;2024-02-15T04:02:18;9.18;;;4.95;;
26530;SDS011;14201;43.188;24.160;2024-02-15T04:04:44;7.82;;;4.60;;
26530;SDS011;14201;43.188;24.160;2024-02-15T04:07:15;6.60;;;4.28;;
26530;SDS011;14201;43.188;24.160;2024-02-15T04:09:44;6.88;;;4.75;;
26530;SDS011;14201;43.188;24.160;2024-02-15T04:12:12;7.90;;;5.00;;
26530;SDS011;14201;43.188;24.160;2024-02-15T04:14:39;9.75;;;4.68;;
26530;SDS011;14201;43.188;24.160;2024-02-15T04:17:06;8.57;;;4.80;;
26530;SDS011;14201;43.188;24.160;2024-02-15T04:19:33;8.85;;;4.63;;
26530;SDS011;14201;43.188;24.160;2024-02-15T04:21:59;7.25;;;4.60;;
26530;SDS011;14201;43.188;24.160;2024-02-15T04:24:28;9.50;;;4.95;;
26530;SDS011;14201;43.188;24.160;2024-02-15T04:26:54;11.38;;;4.82;;
26530;SDS011;14201;43.188;24.160;2024-02-15T04:29:20;7.25;;;4.32;;
26530;SDS011;14201;43.188;24.160;2024-02-15T04:31:46;6.32;;;5.03;;
26530;SDS011;14201;43.188;24.160;2024-02-15T04:34:17;5.60;;;4.30;;
26530;SDS011;14201;43.188;24.160;2024-02-15T04:36:47;7.35;;;4.80;;
26530;SDS011;14201;43.188;24.160;2024-02-15T04:39:18;6.38;;;4.68;;
26530;SDS011;14201;43.188;24.160;2024-02-15T04:41:52;8.38;;;4.57;;
26530;SDS011;14201;43.188;24.160;2024-02-15T04:44:19;6.93;;;4.88;;
26530;SDS011;14201;43.188;24.160;2024-02-15T04:46:48;7.55;;;5.10;;
26530;SDS011;14201;43.188;24.160;2024-02-15T04:49:14;6.47;;;4.55;;
26530;SDS011;14201;43.188;24.160;2024-02-15T04:51:40;8.43;;;5.25;;
26530;SDS011;14201;43.188;24.160;2024-02-15T04:54:09;10.02;;;4.55;;
26530;SDS011;14201;43.188;24.160;2024-02-15T04:56:41;7.15;;;4.30;;
26530;SDS011;14201;43.188;24.160;2024-02-15T04:59:10;7.30;;;4.70;;
26530;SDS011;14201;43.188;24.160;2024-02-15T05:01:42;7.30;;;4.43;;
26530;SDS011;14201;43.188;24.160;2024-02-15T05:04:09;8.73;;;4.60;;
26530;SDS011;14201;43.188;24.160;2024-02-15T05:06:35;10.35;;;4.60;;
26530;SDS011;14201;43.188;24.160;2024-02-15T05:09:02;5.85;;;4.68;;
26530;SDS011;14201;43.188;24.160;2024-02-15T05:11:33;7.60;;;4.63;;
26530;SDS011;14201;43.188;24.160;2024-02-15T05:14:02;10.45;;;5.28;;
26530;SDS011;14201;43.188;24.160;2024-02-15T05:16:34;7.45;;;4.10;;
26530;SDS011;14201;43.188;24.160;2024-02-15T05:19:00;6.43;;;4.32;;
26530;SDS011;14201;43.188;24.160;2024-02-15T05:21:25;6.82;;;4.55;;
26530;SDS011;14201;43.188;24.160;2024-02-15T05:23:51;8.05;;;4.50;;
26530;SDS011;14201;43.188;24.160;2024-02-15T05:26:18;6.40;;;4.55;;
26530;SDS011;14201;43.188;24.160;2024-02-15T05:28:51;7.72;;;4.30;;
26530;SDS011;14201;43.188;24.160;2024-02-15T05:31:17;7.13;;;4.57;;
26530;SDS011;14201;43.188;24.160;2024-02-15T05:33:45;8.30;;;4.72;;
26530;SDS011;14201;43.188;24.160;2024-02-15T05:36:16;6.07;;;4.35;;
26530;SDS011;14201;43.188;24.160;2024-02-15T05:38:51;6.53;;;4.57;;
26530;SDS011;14201;43.188;24.160;2024-02-15T05:41:17;7.75;;;4.85;;
26530;SDS011;14201;43.188;24.160;2024-02-15T05:43:44;10.32;;;4.68;;
26530;SDS011;14201;43.188;24.160;2024-02-15T05:46:11;9.00;;;4.78;;
26530;SDS011;14201;43.188;24.160;2024-02-15T05:48:37;8.25;;;4.88;;
26530;SDS011;14201;43.188;24.160;2024-02-15T05:51:04;7.80;;;4.65;;
26530;SDS011;14201;43.188;24.160;2024-02-15T05:53:31;7.90;;;4.55;;
26530;SDS011;14201;43.188;24.160;2024-02-15T05:56:06;9.13;;;4.68;;
26530;SDS011;14201;43.188;24.160;2024-02-15T05:58:33;6.95;;;4.63;;
26530;SDS011;14201;43.188;24.160;2024-02-15T06:01:00;10.73;;;5.20;;
26530;SDS011;14201;43.188;24.160;2024-02-15T06:03:33;9.90;;;4.57;;
26530;SDS011;14201;43.188;24.160;2024-02-15T06:06:03;7.63;;;4.55;;
26530;SDS011;14201;43.188;24.160;2024-02-15T06:22:34;9.02;;;5.00;;
26530;SDS011;14201;43.188;24.160;2024-02-15T06:25:01;11.50;;;5.43;;
26530;SDS011;14201;43.188;24.160;2024-02-15T06:27:27;8.18;;;4.30;;
26530;SDS011;14201;43.188;24.160;2024-02-15T06:29:52;7.40;;;4.30;;
26530;SDS011;14201;43.188;24.160;2024-02-15T06:32:37;8.40;;;4.53;;
26530;SDS011;14201;43.188;24.160;2024-02-15T06:35:21;6.88;;;4.80;;
26530;SDS011;14201;43.188;24.160;2024-02-15T06:38:04;8.35;;;4.72;;
26530;SDS011;14201;43.188;24.160;2024-02-15T06:40:48;7.80;;;4.55;;
26530;SDS011;14201;43.188;24.160;2024-02-15T06:43:14;8.10;;;4.53;;
26530;SDS011;14201;43.188;24.160;2024-02-15T06:45:41;8.88;;;4.45;;
26530;SDS011;14201;43.188;24.160;2024-02-15T06:48:11;6.55;;;4.32;;
26530;SDS011;14201;43.188;24.160;2024-02-15T06:50:37;6.95;;;5.05;;
26530;SDS011;14201;43.188;24.160;2024-02-15T06:53:03;6.65;;;4.65;;
26530;SDS011;14201;43.188;24.160;2024-02-15T06:55:29;5.50;;;3.95;;
26530;SDS011;14201;43.188;24.160;2024-02-15T06:57:55;6.68;;;4.35;;
26530;SDS011;14201;43.188;24.160;2024-02-15T07:00:21;7.35;;;4.60;;
26530;SDS011;14201;43.188;24.160;2024-02-15T07:02:47;7.55;;;4.30;;
26530;SDS011;14201;43.188;24.160;2024-02-15T07:05:13;6.30;;;4.57;;
26530;SDS011;14201;43.188;24.160;2024-02-15T07:07:42;7.30;;;4.22;;
26530;SDS011;14201;43.188;24.160;2024-02-15T07:10:08;8.25;;;4.88;;
26530;SDS011;14201;43.188;24.160;2024-02-15T07:12:35;8.60;;;4.55;;
26530;SDS011;14201;43.188;24.160;2024-02-15T07:15:03;6.38;;;4.53;;
26530;SDS011;14201;43.188;24.160;2024-02-15T07:17:33;6.43;;;4.55;;
26530;SDS011;14201;43.188;24.160;2024-02-15T07:19:58;7.15;;;4.43;;
26530;SDS011;14201;43.188;24.160;2024-02-15T07:22:24;6.72;;;4.50;;
26530;SDS011;14201;43.188;24.160;2024-02-15T07:24:49;7.55;;;4.13;;
26530;SDS011;14201;43.188;24.160;2024-02-15T07:27:15;10.30;;;4.68;;
26530;SDS011;14201;43.188;24.160;2024-02-15T07:29:41;8.50;;;4.25;;
26530;SDS011;14201;43.188;24.160;2024-02-15T07:32:07;6.20;;;4.20;;
26530;SDS011;14201;43.188;24.160;2024-02-15T07:34:33;15.82;;;4.50;;
26530;SDS011;14201;43.188;24.160;2024-02-15T07:36:59;5.63;;;3.88;;
26530;SDS011;14201;43.188;24.160;2024-02-15T07:39:25;7.32;;;4.65;;
26530;SDS011;14201;43.188;24.160;2024-02-15T07:41:55;6.03;;;4.15;;
26530;SDS011;14201;43.188;24.160;2024-02-15T07:44:23;7.28;;;4.57;;
26530;SDS011;14201;43.188;24.160;2024-02-15T07:46:49;7.00;;;4.43;;
26530;SDS011;14201;43.188;24.160;2024-02-15T07:49:15;5.90;;;4.07;;
26530;SDS011;14201;43.188;24.160;2024-02-15T07:51:43;6.40;;;4.15;;
26530;SDS011;14201;43.188;24.160;2024-02-15T07:54:09;6.18;;;4.25;;
26530;SDS011;14201;43.188;24.160;2024-02-15T07:56:35;6.40;;;4.07;;
26530;SDS011;14201;43.188;24.160;2024-02-15T07:59:01;7.75;;;4.53;;
26530;SDS011;14201;43.188;24.160;2024-02-15T08:01:28;6.13;;;4.40;;
26530;SDS011;14201;43.188;24.160;2024-02-15T08:03:55;8.35;;;4.25;;
26530;SDS011;14201;43.188;24.160;2024-02-15T08:06:21;5.57;;;3.88;;
26530;SDS011;14201;43.188;24.160;2024-02-15T08:08:50;7.00;;;4.15;;
26530;SDS011;14201;43.188;24.160;2024-02-15T08:11:17;6.50;;;3.60;;
26530;SDS011;14201;43.188;24.160;2024-02-15T08:13:44;8.73;;;4.82;;
26530;SDS011;14201;43.188;24.160;2024-02-15T08:16:21;7.88;;;4.50;;
26530;SDS011;14201;43.188;24.160;2024-02-15T08:18:52;9.25;;;4.10;;
26530;SDS011;14201;43.188;24.160;2024-02-15T08:21:25;6.85;;;4.30;;
26530;SDS011;14201;43.188;24.160;2024-02-15T08:23:52;6.60;;;4.50;;
26530;SDS011;14201;43.188;24.160;2024-02-15T08:26:18;6.75;;;4.25;;
26530;SDS011;14201;43.188;24.160;2024-02-15T08:28:43;6.80;;;4.15;;
26530;SDS011;14201;43.188;24.160;2024-02-15T08:31:09;7.20;;;4.25;;
26530;SDS011;14201;43.188;24.160;2024-02-15T08:33:36;6.70;;;4.22;;
26530;SDS011;14201;43.188;24.160;2024-02-15T08:36:03;6.50;;;3.75;;
26530;SDS011;14201;43.188;24.160;2024-02-15T08:38:30;7.15;;;4.30;;
26530;SDS011;14201;43.188;24.160;2024-02-15T08:40:56;7.30;;;4.22;;
26530;SDS011;14201;43.188;24.160;2024-02-15T08:43:21;7.25;;;4.25;;
26530;SDS011;14201;43.188;24.160;2024-02-15T08:45:47;8.23;;;4.32;;
26530;SDS011;14201;43.188;24.160;2024-02-15T08:48:13;11.15;;;4.25;;
26530;SDS011;14201;43.188;24.160;2024-02-15T08:50:39;6.07;;;4.20;;
26530;SDS011;14201;43.188;24.160;2024-02-15T08:53:06;6.18;;;4.15;;
26530;SDS011;14201;43.188;24.160;2024-02-15T08:55:32;7.18;;;4.30;;
26530;SDS011;14201;43.188;24.160;2024-02-15T08:58:00;6.95;;;4.35;;
26530;SDS011;14201;43.188;24.160;2024-02-15T09:00:27;7.47;;;4.10;;
26530;SDS011;14201;43.188;24.160;2024-02-15T09:02:53;6.47;;;4.00;;
26530;SDS011;14201;43.188;24.160;2024-02-15T09:05:19;5.85;;;3.70;;
26530;SDS011;14201;43.188;24.160;2024-02-15T09:07:47;6.93;;;3.72;;
26530;SDS011;14201;43.188;24.160;2024-02-15T09:10:13;7.00;;;3.78;;
26530;SDS011;14201;43.188;24.160;2024-02-15T09:12:42;6.75;;;3.70;;
26530;SDS011;14201;43.188;24.160;2024-02-15T09:15:10;6.65;;;3.75;;
26530;SDS011;14201;43.188;24.160;2024-02-15T09:17:39;6.43;;;4.05;;
26530;SDS011;14201;43.188;24.160;2024-02-15T09:20:12;7.70;;;4.25;;
26530;SDS011;14201;43.188;24.160;2024-02-15T09:22:43;5.88;;;3.78;;
26530;SDS011;14201;43.188;24.160;2024-02-15T09:25:13;7.80;;;3.63;;
26530;SDS011;14201;43.188;24.160;2024-02-15T09:27:39;4.63;;;3.70;;
26530;SDS011;14201;43.188;24.160;2024-02-15T09:30:05;5.05;;;3.40;;
26530;SDS011;14201;43.188;24.160;2024-02-15T09:32:38;4.18;;;3.38;;
26530;SDS011;14201;43.188;24.160;2024-02-15T09:35:05;5.70;;;3.45;;
26530;SDS011;14201;43.188;24.160;2024-02-15T09:37:37;7.00;;;4.03;;
26530;SDS011;14201;43.188;24.160;2024-02-15T09:40:07;4.87;;;3.30;;
26530;SDS011;14201;43.188;24.160;2024-02-15T09:42:37;6.57;;;3.63;;
26530;SDS011;14201;43.188;24.160;2024-02-15T09:45:08;7.43;;;3.20;;
26530;SDS011;14201;43.188;24.160;2024-02-15T09:47:38;5.75;;;3.22;;
26530;SDS011;14201;43.188;24.160;2024-02-15T09:50:08;6.15;;;3.80;;
26530;SDS011;14201;43.188;24.160;2024-02-15T09:52:45;5.38;;;3.08;;
26530;SDS011;14201;43.188;24.160;2024-02-15T09:55:19;4.43;;;3.03;;
26530;SDS011;14201;43.188;24.160;2024-02-15T09:57:48;3.95;;;3.10;;
26530;SDS011;14201;43.188;24.160;2024-02-15T10:00:15;5.13;;;3.25;;
26530;SDS011;14201;43.188;24.160;2024-02-15T10:02:48;7.55;;;3.15;;
26530;SDS011;14201;43.188;24.160;2024-02-15T10:05:17;4.05;;;3.40;;
26530;SDS011;14201;43.188;24.160;2024-02-15T10:07:43;5.68;;;3.47;;
26530;SDS011;14201;43.188;24.160;2024-02-15T10:12:52;6.22;;;2.63;;
26530;SDS011;14201;43.188;24.160;2024-02-15T10:15:29;6.10;;;3.40;;
26530;SDS011;14201;43.188;24.160;2024-02-15T10:17:55;4.68;;;2.88;;
26530;SDS011;14201;43.188;24.160;2024-02-15T10:20:22;6.18;;;3.58;;
26530;SDS011;14201;43.188;24.160;2024-02-15T10:25:28;5.85;;;3.78;;
26530;SDS011;14201;43.188;24.160;2024-02-15T10:28:07;5.05;;;3.20;;
26530;SDS011;14201;43.188;24.160;2024-02-15T10:30:38;4.90;;;3.28;;
26530;SDS011;14201;43.188;24.160;2024-02-15T10:33:05;5.93;;;3.58;;
26530;SDS011;14201;43.188;24.160;2024-02-15T10:35:32;6.90;;;3.33;;
26530;SDS011;14201;43.188;24.160;2024-02-15T10:38:05;7.43;;;3.42;;
26530;SDS011;14201;43.188;24.160;2024-02-15T10:40:38;6.35;;;3.35;;
26530;SDS011;14201;43.188;24.160;2024-02-15T10:43:06;5.03;;;3.27;;
26530;SDS011;14201;43.188;24.160;2024-02-15T10:45:34;6.70;;;3.70;;
26530;SDS011;14201;43.188;24.160;2024-02-15T10:48:02;5.32;;;3.55;;
26530;SDS011;14201;43.188;24.160;2024-02-15T10:50:30;5.90;;;4.07;;
26530;SDS011;14201;43.188;24.160;2024-02-15T10:52:56;8.30;;;3.80;;
26530;SDS011;14201;43.188;24.160;2024-02-15T10:55:40;6.53;;;3.53;;
26530;SDS011;14201;43.188;24.160;2024-02-15T10:58:16;5.80;;;3.30;;
26530;SDS011;14201;43.188;24.160;2024-02-15T11:00:45;5.50;;;3.20;;
26530;SDS011;14201;43.188;24.160;2024-02-15T11:03:14;4.83;;;3.30;;
26530;SDS011;14201;43.188;24.160;2024-02-15T11:05:47;4.10;;;3.20;;
26530;SDS011;14201;43.188;24.160;2024-02-15T11:08:13;4.90;;;3.50;;
26530;SDS011;14201;43.188;24.160;2024-02-15T11:10:42;4.27;;;3.20;;
26530;SDS011;14201;43.188;24.160;2024-02-15T11:13:08;5.80;;;3.80;;
26530;SDS011;14201;43.188;24.160;2024-02-15T11:18:00;7.35;;;3.90;;
26530;SDS011;14201;43.188;24.160;2024-02-15T11:22:58;7.40;;;4.30;;
26530;SDS011;14201;43.188;24.160;2024-02-15T11:25:39;7.32;;;4.10;;
26530;SDS011;14201;43.188;24.160;2024-02-15T11:30:53;5.82;;;4.10;;
26530;SDS011;14201;43.188;24.160;2024-02-15T11:33:27;5.30;;;4.07;;
26530;SDS011;14201;43.188;24.160;2024-02-15T11:36:07;6.10;;;3.92;;
26530;SDS011;14201;43.188;24.160;2024-02-15T11:38:35;6.07;;;4.00;;
26530;SDS011;14201;43.188;24.160;2024-02-15T11:41:08;6.68;;;4.32;;
26530;SDS011;14201;43.188;24.160;2024-02-15T11:46:12;6.25;;;4.43;;
26530;SDS011;14201;43.188;24.160;2024-02-15T11:48:39;8.85;;;4.97;;
26530;SDS011;14201;43.188;24.160;2024-02-15T11:51:05;10.90;;;4.60;;
26530;SDS011;14201;43.188;24.160;2024-02-15T11:53:32;8.77;;;4.35;;
26530;SDS011;14201;43.188;24.160;2024-02-15T11:56:01;7.07;;;4.03;;
26530;SDS011;14201;43.188;24.160;2024-02-15T11:58:28;7.70;;;4.63;;
26530;SDS011;14201;43.188;24.160;2024-02-15T12:01:17;7.13;;;4.30;;
26530;SDS011;14201;43.188;24.160;2024-02-15T12:04:01;11.70;;;4.22;;
26530;SDS011;14201;43.188;24.160;2024-02-15T12:06:46;5.32;;;3.75;;
26530;SDS011;14201;43.188;24.160;2024-02-15T12:09:29;6.47;;;4.00;;
26530;SDS011;14201;43.188;24.160;2024-02-15T12:12:13;10.88;;;4.28;;
26530;SDS011;14201;43.188;24.160;2024-02-15T12:18:16;6.85;;;4.78;;
26530;SDS011;14201;43.188;24.160;2024-02-15T12:21:00;7.75;;;4.57;;
26530;SDS011;14201;43.188;24.160;2024-02-15T12:23:27;4.63;;;3.63;;
26530;SDS011;14201;43.188;24.160;2024-02-15T12:25:55;7.82;;;4.45;;
26530;SDS011;14201;43.188;24.160;2024-02-15T12:28:21;8.43;;;4.93;;
26530;SDS011;14201;43.188;24.160;2024-02-15T12:30:47;7.50;;;4.90;;
26530;SDS011;14201;43.188;24.160;2024-02-15T12:33:21;10.20;;;4.65;;
26530;SDS011;14201;43.188;24.160;2024-02-15T12:35:46;8.68;;;4.47;;
26530;SDS011;14201;43.188;24.160;2024-02-15T12:38:12;7.45;;;4.78;;
26530;SDS011;14201;43.188;24.160;2024-02-15T12:40:41;5.63;;;4.25;;
26530;SDS011;14201;43.188;24.160;2024-02-15T12:43:08;6.32;;;4.75;;
26530;SDS011;14201;43.188;24.160;2024-02-15T12:45:38;8.52;;;4.50;;
26530;SDS011;14201;43.188;24.160;2024-02-15T12:48:06;7.88;;;5.18;;
26530;SDS011;14201;43.188;24.160;2024-02-15T12:50:33;8.55;;;4.78;;
26530;SDS011;14201;43.188;24.160;2024-02-15T12:53:00;7.60;;;4.80;;
26530;SDS011;14201;43.188;24.160;2024-02-15T12:55:29;6.68;;;4.70;;
26530;SDS011;14201;43.188;24.160;2024-02-15T12:58:03;5.78;;;4.50;;
26530;SDS011;14201;43.188;24.160;2024-02-15T13:03:04;5.95;;;4.15;;
26530;SDS011;14201;43.188;24.160;2024-02-15T13:05:34;6.82;;;5.03;;
26530;SDS011;14201;43.188;24.160;2024-02-15T13:20:45;7.78;;;5.15;;
26530;SDS011;14201;43.188;24.160;2024-02-15T13:23:14;9.48;;;5.38;;
26530;SDS011;14201;43.188;24.160;2024-02-15T13:25:44;9.40;;;5.15;;
26530;SDS011;14201;43.188;24.160;2024-02-15T13:28:11;8.82;;;5.07;;
26530;SDS011;14201;43.188;24.160;2024-02-15T13:30:38;6.25;;;5.18;;
26530;SDS011;14201;43.188;24.160;2024-02-15T13:33:04;7.18;;;5.03;;
26530;SDS011;14201;43.188;24.160;2024-02-15T13:35:31;7.45;;;5.05;;
26530;SDS011;14201;43.188;24.160;2024-02-15T13:37:57;5.78;;;4.40;;
26530;SDS011;14201;43.188;24.160;2024-02-15T13:40:26;7.50;;;4.80;;
26530;SDS011;14201;43.188;24.160;2024-02-15T13:42:58;8.00;;;5.20;;
26530;SDS011;14201;43.188;24.160;2024-02-15T13:45:31;7.13;;;5.60;;
26530;SDS011;14201;43.188;24.160;2024-02-15T13:48:02;7.38;;;5.13;;
26530;SDS011;14201;43.188;24.160;2024-02-15T13:50:30;6.60;;;4.57;;
26530;SDS011;14201;43.188;24.160;2024-02-15T13:52:56;7.22;;;5.00;;
26530;SDS011;14201;43.188;24.160;2024-02-15T13:55:23;6.72;;;4.40;;
26530;SDS011;14201;43.188;24.160;2024-02-15T13:57:50;8.20;;;4.40;;
26530;SDS011;14201;43.188;24.160;2024-02-15T14:00:17;5.82;;;4.47;;
26530;SDS011;14201;43.188;24.160;2024-02-15T14:02:56;6.65;;;4.45;;
26530;SDS011;14201;43.188;24.160;2024-02-15T14:05:23;6.95;;;4.80;;
26530;SDS011;14201;43.188;24.160;2024-02-15T14:10:30;7.00;;;4.68;;
26530;SDS011;14201;43.188;24.160;2024-02-15T14:13:00;9.05;;;4.60;;
26530;SDS011;14201;43.188;24.160;2024-02-15T14:15:31;9.60;;;4.78;;
26530;SDS011;14201;43.188;24.160;2024-02-15T14:18:06;7.07;;;4.57;;
26530;SDS011;14201;43.188;24.160;2024-02-15T14:20:35;8.20;;;4.88;;
26530;SDS011;14201;43.188;24.160;2024-02-15T14:23:01;7.18;;;4.78;;
26530;SDS011;14201;43.188;24.160;2024-02-15T14:25:31;8.82;;;5.00;;
26530;SDS011;14201;43.188;24.160;2024-02-15T14:27:57;8.65;;;5.45;;
26530;SDS011;14201;43.188;24.160;2024-02-15T14:30:27;8.00;;;4.93;;
26530;SDS011;14201;43.188;24.160;2024-02-15T14:33:11;8.48;;;5.60;;
26530;SDS011;14201;43.188;24.160;2024-02-15T14:35:40;6.13;;;4.85;;
26530;SDS011;14201;43.188;24.160;2024-02-15T14:38:11;6.30;;;4.90;;
26530;SDS011;14201;43.188;24.160;2024-02-15T14:40:41;7.45;;;5.60;;
26530;SDS011;14201;43.188;24.160;2024-02-15T14:43:10;6.18;;;4.75;;
26530;SDS011;14201;43.188;24.160;2024-02-15T14:48:09;7.30;;;4.75;;
26530;SDS011;14201;43.188;24.160;2024-02-15T14:50:38;9.95;;;5.35;;
26530;SDS011;14201;43.188;24.160;2024-02-15T14:53:07;7.10;;;5.45;;
26530;SDS011;14201;43.188;24.160;2024-02-15T14:55:36;7.65;;;4.65;;
26530;SDS011;14201;43.188;24.160;2024-02-15T14:58:04;6.82;;;5.00;;
26530;SDS011;14201;43.188;24.160;2024-02-15T15:00:33;6.20;;;4.60;;
26530;SDS011;14201;43.188;24.160;2024-02-15T15:02:59;6.63;;;5.13;;
26530;SDS011;14201;43.188;24.160;2024-02-15T15:05:24;7.03;;;4.43;;
26530;SDS011;14201;43.188;24.160;2024-02-15T15:08:09;8.50;;;5.38;;
26530;SDS011;14201;43.188;24.160;2024-02-15T15:10:54;6.00;;;4.80;;
26530;SDS011;14201;43.188;24.160;2024-02-15T15:13:38;10.32;;;5.70;;
26530;SDS011;14201;43.188;24.160;2024-02-15T15:16:05;12.00;;;5.65;;
26530;SDS011;14201;43.188;24.160;2024-02-15T15:18:32;8.60;;;5.45;;
26530;SDS011;14201;43.188;24.160;2024-02-15T15:20:59;11.15;;;5.90;;
26530;SDS011;14201;43.188;24.160;2024-02-15T15:23:29;7.57;;;5.93;;
26530;SDS011;14201;43.188;24.160;2024-02-15T15:26:00;11.57;;;6.28;;
26530;SDS011;14201;43.188;24.160;2024-02-15T15:28:26;14.35;;;7.05;;
26530;SDS011;14201;43.188;24.160;2024-02-15T15:30:52;13.93;;;7.35;;
26530;SDS011;14201;43.188;24.160;2024-02-15T15:33:20;10.88;;;7.05;;